Time;durP1;ratioP1;P1;durP2;ratioP2;P2;SDS_P1;SDS_P2;PMS_P1;PMS_P2;Temp;Humidity;BMP_temperature;BMP_pressure;BME280_temperature;BME280_humidity;BME280_pressure;Samples;Min_cycle;Max_cycle;Signal;HPM_P1;HPM_P2
2021/03/15 04:15:32;;;;;;;21.45;13.48;;;0.60;99.90;;;;;;5091033;28;20527;-67
2021/03/15 04:18:01;;;;;;;25.45;14.43;;;0.60;99.90;;;;;;5091351;28;20073;-67
2021/03/15 04:20:34;;;;;;;23.50;14.70;;;0.60;99.90;;;;;;5091722;28;20020;-67
2021/03/15 04:23:02;;;;;;;28.23;14.88;;;0.60;99.90;;;;;;5091536;28;20024;-67
2021/03/15 04:25:32;;;;;;;23.17;13.70;;;0.60;99.90;;;;;;5091584;28;20107;-67
2021/03/15 04:27:59;;;;;;;26.97;15.40;;;0.60;99.90;;;;;;5107210;28;20030;-67
2021/03/15 04:30:26;;;;;;;24.40;14.20;;;0.70;99.90;;;;;;5092946;28;20468;-67
2021/03/15 04:32:54;;;;;;;22.48;13.40;;;0.70;99.90;;;;;;5095940;28;20525;-67
2021/03/15 04:35:31;;;;;;;23.30;13.38;;;0.70;99.90;;;;;;5095662;28;20593;-67
2021/03/15 04:38:04;;;;;;;24.08;14.27;;;0.70;99.90;;;;;;5095782;28;20494;-67
2021/03/15 04:40:31;;;;;;;23.75;13.45;;;0.70;99.90;;;;;;5095600;28;20417;-67
2021/03/15 04:43:01;;;;;;;23.50;13.70;;;0.70;99.90;;;;;;5095571;28;20016;-67
2021/03/15 04:45:31;;;;;;;19.75;12.48;;;0.70;99.90;;;;;;5095902;28;20024;-67
2021/03/15 04:47:59;;;;;;;23.45;12.93;;;0.70;99.90;;;;;;5095671;28;20028;-67
2021/03/15 04:50:27;;;;;;;20.98;12.02;;;0.70;99.90;;;;;;5095254;28;20071;-67
2021/03/15 04:52:55;;;;;;;19.83;11.57;;;0.70;99.90;;;;;;5095309;28;20024;-67
2021/03/15 04:55:21;;;;;;;19.77;12.10;;;0.70;99.90;;;;;;5095229;28;20055;-67
2021/03/15 04:57:49;;;;;;;24.20;11.55;;;0.70;99.90;;;;;;5095792;28;20386;-66
2021/03/15 05:00:16;;;;;;;21.40;11.73;;;0.70;99.90;;;;;;5110901;28;20047;-66
2021/03/15 05:02:47;;;;;;;18.05;11.63;;;0.70;99.90;;;;;;5095103;28;20016;-68
2021/03/15 05:05:15;;;;;;;17.30;11.25;;;0.70;99.90;;;;;;5095124;28;20028;-67
2021/03/15 05:07:46;;;;;;;22.50;11.95;;;0.70;99.90;;;;;;5095018;28;20367;-68
2021/03/15 05:10:14;;;;;;;19.05;10.85;;;0.80;99.90;;;;;;5095356;28;20480;-68
2021/03/15 05:12:41;;;;;;;18.35;10.90;;;0.80;99.90;;;;;;5094972;28;20028;-68
2021/03/15 05:15:10;;;;;;;21.33;12.00;;;0.70;99.90;;;;;;5094773;28;20697;-67
2021/03/15 05:17:37;;;;;;;18.08;11.20;;;0.70;99.90;;;;;;5095078;28;20535;-68
2021/03/15 05:20:11;;;;;;;20.38;11.23;;;0.70;99.90;;;;;;5094589;28;20024;-68
2021/03/15 05:22:37;;;;;;;17.30;11.45;;;0.70;99.90;;;;;;5095016;28;20154;-68
2021/03/15 05:25:08;;;;;;;17.10;11.52;;;0.70;99.90;;;;;;5076256;28;20110;-68
2021/03/15 05:27:34;;;;;;;;;;;0.80;99.90;;;;;;5095452;28;20035;-68
2021/03/15 05:30:07;;;;;;;16.08;9.65;;;0.80;99.90;;;;;;5094276;28;19904;-68
2021/03/15 05:32:36;;;;;;;17.67;11.48;;;0.90;99.90;;;;;;5094914;28;20040;-69
2021/03/15 05:35:03;;;;;;;15.15;9.70;;;0.90;99.90;;;;;;5094676;28;20412;-68
2021/03/15 05:37:29;;;;;;;17.38;10.30;;;0.90;99.90;;;;;;5094551;28;20020;-67
2021/03/15 05:39:56;;;;;;;14.25;8.93;;;0.80;99.90;;;;;;5094153;28;20119;-70
2021/03/15 05:42:21;;;;;;;13.48;8.75;;;1.10;99.90;;;;;;5094135;28;20024;-71
2021/03/15 05:44:57;;;;;;;16.27;9.93;;;1.40;99.90;;;;;;5093970;28;20042;-72
2021/03/15 05:47:46;;;;;;;17.20;10.35;;;1.40;99.90;;;;;;5093739;28;20055;-71
2021/03/15 05:50:33;;;;;;;18.13;9.63;;;1.30;99.90;;;;;;5093371;28;20073;-73
2021/03/15 05:53:26;;;;;;;15.48;10.07;;;1.20;99.90;;;;;;5090913;28;20035;-70
2021/03/15 05:56:10;;;;;;;15.20;9.85;;;1.10;99.90;;;;;;5074578;28;20774;-73
2021/03/15 05:58:49;;;;;;;17.33;9.52;;;1.10;99.90;;;;;;5087867;28;20027;-68
2021/03/15 06:01:36;;;;;;;14.85;9.48;;;1.10;99.90;;;;;;5103455;28;20023;-68
2021/03/15 06:04:26;;;;;;;17.70;9.80;;;1.10;99.90;;;;;;5088463;28;20024;-68
2021/03/15 06:06:53;;;;;;;13.90;8.35;;;1.10;99.90;;;;;;5094042;28;20047;-67
2021/03/15 06:09:22;;;;;;;15.70;9.45;;;1.10;99.90;;;;;;5093080;28;20032;-68
2021/03/15 06:11:58;;;;;;;15.43;9.60;;;1.10;99.90;;;;;;5093291;28;20056;-67
2021/03/15 06:14:25;;;;;;;14.75;9.45;;;1.10;99.90;;;;;;5092798;28;20111;-68
2021/03/15 06:16:53;;;;;;;14.38;9.27;;;1.10;99.90;;;;;;5093823;28;20032;-67
2021/03/15 06:19:19;;;;;;;15.18;9.32;;;1.10;99.90;;;;;;5094042;28;20024;-69
2021/03/15 06:21:46;;;;;;;17.95;9.75;;;1.10;99.90;;;;;;5093702;28;20020;-67
2021/03/15 06:24:12;;;;;;;14.13;9.77;;;1.10;99.90;;;;;;5093700;28;20031;-70
2021/03/15 06:26:39;;;;;;;15.23;9.80;;;1.10;99.90;;;;;;5075525;28;20044;-70
2021/03/15 06:29:05;;;;;;;17.20;9.80;;;1.20;99.90;;;;;;5093687;28;20402;-71
2021/03/15 06:31:33;;;;;;;18.13;10.75;;;1.30;99.90;;;;;;5093415;28;20043;-70
2021/03/15 06:34:00;;;;;;;16.63;10.38;;;1.40;99.90;;;;;;5090527;28;20029;-70
2021/03/15 06:36:28;;;;;;;14.70;9.70;;;1.30;99.90;;;;;;5093267;28;20029;-70
2021/03/15 06:38:55;;;;;;;20.13;10.02;;;1.40;99.90;;;;;;5093186;28;20051;-69
2021/03/15 06:41:26;;;;;;;17.25;10.32;;;1.40;99.90;;;;;;5093101;28;20568;-69
2021/03/15 06:43:51;;;;;;;15.15;9.90;;;1.30;99.90;;;;;;5093446;28;20023;-69
2021/03/15 06:46:19;;;;;;;16.65;9.20;;;1.40;99.90;;;;;;5092957;28;20032;-69
2021/03/15 06:48:45;;;;;;;15.80;9.57;;;1.40;99.90;;;;;;5074994;28;20426;-69
2021/03/15 06:51:11;;;;;;;15.05;8.15;;;1.30;99.90;;;;;;5092878;28;20116;-70
2021/03/15 06:53:42;;;;;;;13.63;8.80;;;1.30;99.90;;;;;;5092249;28;20468;-69
2021/03/15 06:56:16;;;;;;;16.17;9.48;;;1.20;99.90;;;;;;5092787;28;20031;-69
2021/03/15 06:58:49;;;;;;;15.23;9.13;;;1.30;99.90;;;;;;5093046;28;20031;-67
2021/03/15 07:01:27;;;;;;;13.18;8.57;;;1.30;99.90;;;;;;5092738;28;20089;-68
2021/03/15 07:04:13;;;;;;;13.02;8.48;;;1.30;99.90;;;;;;5092709;28;20081;-70
2021/03/15 07:06:42;;;;;;;12.80;7.60;;;1.40;99.90;;;;;;5092590;28;20102;-67
2021/03/15 07:09:09;;;;;;;14.20;8.25;;;1.70;99.90;;;;;;5071439;28;20032;-67
2021/03/15 07:11:35;;;;;;;13.50;8.63;;;2.20;99.90;;;;;;5092572;28;20032;-67
2021/03/15 07:14:01;;;;;;;13.45;8.23;;;2.30;99.90;;;;;;5092201;28;20024;-67
2021/03/15 07:16:34;;;;;;;12.00;8.57;;;2.20;99.90;;;;;;5092927;28;20036;-67
2021/03/15 07:19:02;;;;;;;12.25;8.05;;;2.00;99.90;;;;;;5092451;28;20099;-69
2021/03/15 07:21:40;;;;;;;14.60;8.50;;;2.20;99.90;;;;;;5092389;28;20032;-74
2021/03/15 07:24:12;;;;;;;14.05;8.95;;;2.10;99.90;;;;;;5092576;28;20027;-75
2021/03/15 07:26:44;;;;;;;12.30;8.10;;;2.00;99.90;;;;;;5092320;28;20028;-75
2021/03/15 07:29:13;;;;;;;11.52;8.15;;;1.90;99.90;;;;;;5092603;28;20051;-76
2021/03/15 07:31:42;;;;;;;12.37;8.30;;;1.80;99.90;;;;;;5092627;28;20047;-71
2021/03/15 07:34:11;;;;;;;12.68;8.30;;;1.70;99.90;;;;;;5090258;28;20353;-71
2021/03/15 07:36:45;;;;;;;13.15;8.18;;;1.70;99.90;;;;;;5092153;28;20028;-69
2021/03/15 07:39:11;;;;;;;12.32;8.20;;;1.70;99.90;;;;;;5079934;28;20024;-70
2021/03/15 07:41:42;;;;;;;11.40;7.90;;;1.80;99.90;;;;;;5092059;28;20027;-70
2021/03/15 07:44:19;;;;;;;10.38;7.10;;;1.70;99.90;;;;;;5092333;28;20040;-71
2021/03/15 07:46:45;;;;;;;12.95;8.60;;;1.70;99.90;;;;;;5092099;28;20031;-76
2021/03/15 07:49:26;;;;;;;12.50;8.60;;;1.70;99.90;;;;;;5092118;28;20023;-79
2021/03/15 07:51:52;;;;;;;;;;;1.80;99.90;;;;;;5092306;28;20035;-81
2021/03/15 07:54:29;;;;;;;13.23;8.27;;;1.80;99.90;;;;;;5088329;28;19908;-74
2021/03/15 07:57:15;;;;;;;12.77;8.75;;;1.80;99.90;;;;;;5091897;28;20387;-74
2021/03/15 07:59:42;;;;;;;10.63;7.25;;;1.80;99.90;;;;;;5085648;28;20024;-72
2021/03/15 08:02:15;;;;;;;12.25;7.90;;;1.80;99.90;;;;;;5091472;28;20027;-74
2021/03/15 08:04:41;;;;;;;11.82;8.13;;;1.90;99.90;;;;;;5090865;28;20484;-72
2021/03/15 08:07:08;;;;;;;11.88;8.32;;;2.00;99.90;;;;;;5091446;28;20035;-72
2021/03/15 08:09:34;;;;;;;11.90;8.00;;;2.00;99.90;;;;;;5090853;28;20093;-75
2021/03/15 08:12:04;;;;;;;12.13;8.00;;;2.10;99.90;;;;;;5090621;28;20036;-76
2021/03/15 08:14:35;;;;;;;12.18;8.15;;;2.10;99.90;;;;;;5090647;28;20032;-77
2021/03/15 08:17:03;;;;;;;11.48;7.63;;;2.10;99.90;;;;;;5090838;28;20050;-76
2021/03/15 08:19:31;;;;;;;9.93;7.15;;;2.10;99.90;;;;;;5090840;28;20124;-77
2021/03/15 08:22:00;;;;;;;10.15;7.00;;;2.10;99.90;;;;;;5089706;28;20020;-76
2021/03/15 08:24:26;;;;;;;10.80;7.30;;;2.10;99.90;;;;;;5091550;28;20153;-76
2021/03/15 08:26:53;;;;;;;13.68;7.75;;;2.10;99.90;;;;;;5091506;28;20050;-75
2021/03/15 08:29:19;;;;;;;10.40;7.15;;;2.10;99.90;;;;;;5091078;28;20053;-75
2021/03/15 08:31:49;;;;;;;9.45;6.95;;;2.10;99.90;;;;;;5091960;28;20082;-76
2021/03/15 08:34:16;;;;;;;8.98;6.00;;;2.20;99.90;;;;;;5072327;28;20032;-77
2021/03/15 08:36:44;;;;;;;10.43;6.25;;;3.20;99.90;;;;;;5091755;28;20071;-75
2021/03/15 08:39:31;;;;;;;9.38;5.97;;;4.40;99.90;;;;;;5091813;28;20024;-75
2021/03/15 08:42:06;;;;;;;10.15;6.18;;;4.40;99.90;;;;;;5091256;28;20116;-76
2021/03/15 08:44:39;;;;;;;9.38;6.43;;;4.00;99.90;;;;;;5073769;28;20020;-76
2021/03/15 08:47:06;;;;;;;10.27;7.35;;;3.50;99.90;;;;;;5092000;28;20027;-76
2021/03/15 08:49:34;;;;;;;9.60;6.47;;;3.20;99.90;;;;;;5091784;28;20069;-76
2021/03/15 08:52:00;;;;;;;9.88;7.22;;;3.00;99.90;;;;;;5091671;28;20035;-76
2021/03/15 08:54:39;;;;;;;8.52;6.53;;;2.90;99.90;;;;;;5091699;28;20029;-76
2021/03/15 08:57:06;;;;;;;10.88;7.68;;;2.80;99.90;;;;;;5092058;28;20048;-76
2021/03/15 08:59:33;;;;;;;8.48;6.30;;;2.80;99.90;;;;;;5091975;28;20024;-76
2021/03/15 09:02:05;;;;;;;9.38;6.35;;;2.80;99.90;;;;;;5092163;28;20020;-76
2021/03/15 09:04:43;;;;;;;10.00;6.43;;;2.80;99.90;;;;;;5091859;28;20107;-76
2021/03/15 09:07:29;;;;;;;9.15;6.88;;;2.80;99.90;;;;;;5091655;28;20016;-76
2021/03/15 09:09:55;;;;;;;10.20;7.05;;;2.80;99.90;;;;;;5073511;28;20418;-76
2021/03/15 09:12:21;;;;;;;9.10;6.28;;;2.80;99.90;;;;;;5091459;28;20065;-76
2021/03/15 09:14:57;;;;;;;10.27;7.07;;;2.80;99.90;;;;;;5091481;28;20036;-76
2021/03/15 09:17:23;;;;;;;9.68;6.97;;;2.70;99.90;;;;;;5094583;28;20039;-76
2021/03/15 09:19:49;;;;;;;9.27;6.35;;;2.70;99.90;;;;;;5095348;28;20016;-76
2021/03/15 09:22:24;;;;;;;10.02;6.25;;;2.80;99.90;;;;;;5095238;28;20099;-76
2021/03/15 09:24:53;;;;;;;11.05;6.47;;;2.80;99.90;;;;;;5095077;28;20038;-76
2021/03/15 09:27:30;;;;;;;8.40;5.53;;;2.80;99.90;;;;;;5095194;28;20028;-76
2021/03/15 09:29:56;;;;;;;9.55;6.70;;;2.80;99.90;;;;;;5095112;28;20028;-76
2021/03/15 09:32:30;;;;;;;8.80;6.20;;;2.80;99.90;;;;;;5094934;28;20036;-76
2021/03/15 09:34:58;;;;;;;10.07;5.60;;;2.90;99.90;;;;;;5076859;28;20028;-77
2021/03/15 09:37:24;;;;;;;7.40;5.30;;;2.90;99.90;;;;;;5095203;28;20024;-76
2021/03/15 09:39:50;;;;;;;8.90;6.03;;;3.00;99.90;;;;;;5095021;28;20020;-78
2021/03/15 09:42:19;;;;;;;8.70;6.13;;;3.00;99.90;;;;;;5094802;28;20360;-77
2021/03/15 09:44:45;;;;;;;8.70;6.20;;;3.00;99.90;;;;;;5095185;28;20476;-77
2021/03/15 09:47:22;;;;;;;7.68;5.43;;;3.10;99.90;;;;;;5094719;28;20540;-75
2021/03/15 09:49:48;;;;;;;8.95;5.80;;;3.10;99.90;;;;;;5094812;28;20016;-75
2021/03/15 09:52:22;;;;;;;8.75;5.45;;;3.10;99.90;;;;;;5094561;28;20119;-75
2021/03/15 09:54:56;;;;;;;10.82;6.47;;;3.10;99.90;;;;;;5094662;28;20039;-75
2021/03/15 09:57:23;;;;;;;7.85;5.60;;;3.20;99.90;;;;;;5077077;28;20043;-75
2021/03/15 09:59:50;;;;;;;7.88;5.70;;;3.30;99.90;;;;;;5094607;28;20032;-75
2021/03/15 10:02:29;;;;;;;12.07;5.97;;;3.30;99.90;;;;;;5076269;28;20024;-77
2021/03/15 10:04:55;;;;;;;8.68;6.40;;;3.40;99.90;;;;;;5094735;28;20047;-75
2021/03/15 10:07:21;;;;;;;8.98;5.82;;;3.40;99.90;;;;;;5093491;28;20518;-77
2021/03/15 10:09:47;;;;;;;9.60;5.80;;;3.50;99.90;;;;;;5094477;28;20051;-76
2021/03/15 10:12:23;;;;;;;8.60;5.78;;;5.50;99.90;;;;;;5094278;28;20071;-76
2021/03/15 10:14:59;;;;;;;7.68;5.40;;;5.90;99.90;;;;;;5094082;28;20055;-76
2021/03/15 10:17:26;;;;;;;8.05;5.85;;;5.50;96.10;;;;;;5094389;28;20081;-75
2021/03/15 10:19:52;;;;;;;7.95;5.25;;;5.10;96.90;;;;;;5094414;28;20016;-75
2021/03/15 10:22:19;;;;;;;6.25;5.00;;;4.70;98.40;;;;;;5094019;28;20397;-74
2021/03/15 10:24:47;;;;;;;8.38;5.15;;;4.80;99.90;;;;;;5094168;28;20024;-69
2021/03/15 10:27:17;;;;;;;7.80;5.43;;;5.20;99.90;;;;;;5093589;28;20016;-69
2021/03/15 10:29:50;;;;;;;7.93;5.90;;;5.10;99.10;;;;;;5093732;28;20601;-68
2021/03/15 10:32:20;;;;;;;7.38;5.57;;;4.90;98.00;;;;;;5096267;28;20462;-70
2021/03/15 10:34:53;;;;;;;;;;;4.70;98.30;;;;;;5093993;28;20478;-72
2021/03/15 10:37:20;;;;;;;7.90;5.50;;;4.50;96.60;;;;;;5093882;28;19908;-72
2021/03/15 10:39:48;;;;;;;7.60;5.85;;;4.40;99.30;;;;;;5093269;28;20047;-72
2021/03/15 10:42:16;;;;;;;8.45;5.75;;;4.30;99.90;;;;;;5092925;28;20039;-73
2021/03/15 10:44:42;;;;;;;8.02;5.57;;;4.30;99.90;;;;;;5092900;28;20016;-72
2021/03/15 10:47:10;;;;;;;7.38;5.28;;;4.30;99.90;;;;;;5092833;28;20031;-73
2021/03/15 10:49:36;;;;;;;7.43;5.40;;;4.20;99.90;;;;;;5092882;28;20417;-70
2021/03/15 10:52:03;;;;;;;7.22;4.97;;;4.20;99.90;;;;;;5092929;28;20036;-69
2021/03/15 10:54:31;;;;;;;6.68;4.90;;;4.30;99.90;;;;;;5092548;28;20098;-70
2021/03/15 10:57:18;;;;;;;6.72;4.55;;;4.30;99.90;;;;;;5093016;28;20368;-70
2021/03/15 10:59:45;;;;;;;6.78;4.40;;;4.30;99.90;;;;;;5093392;28;20076;-70
2021/03/15 11:02:19;;;;;;;8.52;4.90;;;4.40;99.90;;;;;;5093161;28;20031;-70
2021/03/15 11:04:51;;;;;;;4.60;3.97;;;4.50;99.70;;;;;;5093485;28;20024;-70
2021/03/15 11:07:29;;;;;;;5.38;4.20;;;4.50;98.90;;;;;;5075018;28;20046;-70
2021/03/15 11:10:01;;;;;;;7.45;4.68;;;4.50;98.00;;;;;;5093245;28;20081;-70
2021/03/15 11:13:15;;;;;;;5.90;4.40;;;4.40;98.60;;;;;;5092980;28;20028;-71
2021/03/15 11:15:41;;;;;;;6.03;4.53;;;4.50;98.70;;;;;;5030376;28;20084;-71
2021/03/15 11:18:25;;;;;;;6.32;4.68;;;4.50;98.70;;;;;;5030648;28;20100;-71
2021/03/15 11:20:57;;;;;;;5.85;3.97;;;4.50;98.20;;;;;;5071756;28;20036;-71
2021/03/15 11:23:35;;;;;;;7.75;4.00;;;4.50;98.60;;;;;;5092867;28;20059;-71
2021/03/15 11:26:12;;;;;;;6.30;4.45;;;4.50;98.50;;;;;;5074811;28;20028;-71
2021/03/15 11:28:45;;;;;;;5.70;4.13;;;4.50;98.60;;;;;;5092900;28;20024;-70
2021/03/15 11:31:15;;;;;;;5.45;4.22;;;4.60;98.50;;;;;;5092851;28;20020;-71
2021/03/15 11:33:41;;;;;;;;;;;4.60;98.40;;;;;;5093255;28;20054;-71
2021/03/15 11:36:18;;;;;;;4.90;3.92;;;4.60;97.60;;;;;;5092790;28;19904;-71
2021/03/15 11:38:49;;;;;;;4.97;3.75;;;4.60;97.40;;;;;;5092888;28;20031;-70
2021/03/15 11:41:26;;;;;;;5.43;3.70;;;4.70;98.00;;;;;;5092573;28;20063;-69
2021/03/15 11:43:52;;;;;;;5.63;3.95;;;4.70;98.20;;;;;;5091541;28;20023;-69
2021/03/15 11:46:19;;;;;;;6.05;4.07;;;4.70;97.80;;;;;;5092449;28;20099;-71
2021/03/15 11:48:45;;;;;;;5.05;3.83;;;4.80;97.50;;;;;;5073540;28;20024;-70
2021/03/15 11:51:13;;;;;;;5.43;3.85;;;4.80;97.60;;;;;;5091848;28;20398;-70
2021/03/15 11:53:40;;;;;;;5.10;3.90;;;4.80;97.20;;;;;;5092123;28;20483;-69
2021/03/15 11:56:06;;;;;;;5.18;4.38;;;4.80;96.30;;;;;;5091859;28;20494;-77
2021/03/15 11:58:32;;;;;;;5.47;4.05;;;4.80;97.20;;;;;;5092167;28;20024;-73
2021/03/15 12:00:58;;;;;;;5.15;3.65;;;4.80;97.10;;;;;;5092466;28;20024;-72
2021/03/15 12:03:24;;;;;;;4.97;4.00;;;4.90;97.90;;;;;;5092233;28;20488;-73
2021/03/15 12:05:49;;;;;;;6.35;4.47;;;5.00;96.60;;;;;;5092260;28;20103;-73
2021/03/15 12:08:15;;;;;;;6.80;4.15;;;5.10;97.90;;;;;;5092167;28;20032;-72
2021/03/15 12:10:43;;;;;;;7.40;4.57;;;5.20;95.60;;;;;;5073816;28;20032;-69
2021/03/15 12:13:09;;;;;;;8.85;5.35;;;5.10;94.80;;;;;;5092196;28;20081;-69
2021/03/15 12:15:35;;;;;;;7.57;4.30;;;5.10;94.00;;;;;;5091856;28;20048;-69
2021/03/15 12:18:00;;;;;;;6.55;4.40;;;5.10;93.70;;;;;;5092190;28;20046;-70
2021/03/15 12:20:28;;;;;;;6.90;4.78;;;5.00;93.50;;;;;;5092221;28;20421;-70
2021/03/15 12:22:54;;;;;;;5.82;3.80;;;5.10;93.70;;;;;;5091876;28;20044;-71
2021/03/15 12:25:20;;;;;;;7.18;4.45;;;5.10;94.20;;;;;;5091143;28;20032;-71
2021/03/15 12:27:46;;;;;;;8.38;4.72;;;5.20;93.40;;;;;;5092334;28;20119;-69
2021/03/15 12:30:12;;;;;;;6.40;4.57;;;5.70;99.40;;;;;;5092076;28;20052;-70
2021/03/15 12:32:38;;;;;;;7.13;4.45;;;5.90;95.00;;;;;;5091733;28;20036;-69
2021/03/15 12:35:05;;;;;;;7.05;4.68;;;5.70;93.20;;;;;;5091963;28;20031;-69
2021/03/15 12:37:30;;;;;;;6.00;3.78;;;5.60;93.00;;;;;;5091769;28;20020;-69
2021/03/15 12:39:56;;;;;;;6.22;3.88;;;5.50;92.60;;;;;;5091980;28;20062;-69
2021/03/15 12:42:22;;;;;;;3.65;3.17;;;5.50;93.00;;;;;;5091722;28;20392;-70
2021/03/15 12:44:48;;;;;;;6.97;3.97;;;5.50;93.10;;;;;;5092259;28;20051;-69
2021/03/15 12:47:13;;;;;;;4.20;3.10;;;5.50;93.30;;;;;;5091573;28;20028;-70
2021/03/15 12:49:40;;;;;;;5.68;3.30;;;5.50;92.80;;;;;;5092164;28;20020;-70
2021/03/15 12:52:07;;;;;;;4.20;3.25;;;5.50;92.90;;;;;;5076033;28;20092;-70
2021/03/15 12:54:33;;;;;;;5.55;3.95;;;5.50;92.90;;;;;;5095782;28;20040;-69
2021/03/15 12:56:59;;;;;;;7.05;3.58;;;5.50;91.80;;;;;;5095702;28;20536;-69
2021/03/15 12:59:25;;;;;;;3.40;2.80;;;5.50;92.30;;;;;;5095671;28;20111;-69
2021/03/15 13:01:51;;;;;;;4.70;3.20;;;5.50;93.00;;;;;;5095923;28;20126;-70
2021/03/15 13:04:17;;;;;;;5.13;2.78;;;5.60;93.00;;;;;;5095442;28;20476;-70
2021/03/15 13:06:43;;;;;;;4.25;3.10;;;5.60;93.30;;;;;;5077291;28;20047;-70
2021/03/15 13:09:09;;;;;;;4.93;3.00;;;5.60;93.10;;;;;;5095613;28;20536;-69
2021/03/15 13:11:35;;;;;;;3.45;3.13;;;5.60;92.60;;;;;;5095432;28;20032;-69
2021/03/15 13:14:01;;;;;;;3.67;2.53;;;5.60;92.10;;;;;;5095229;28;20395;-69
2021/03/15 13:16:27;;;;;;;3.58;2.47;;;5.60;92.20;;;;;;5095155;28;20032;-69
2021/03/15 13:18:53;;;;;;;4.50;2.92;;;5.60;91.20;;;;;;5095350;28;20483;-69
2021/03/15 13:21:20;;;;;;;2.92;2.55;;;5.60;91.70;;;;;;5095184;28;20040;-69
2021/03/15 13:23:46;;;;;;;3.03;2.70;;;5.60;91.60;;;;;;5095265;28;20031;-69
2021/03/15 13:26:12;;;;;;;3.28;2.60;;;5.60;91.20;;;;;;5095368;28;20020;-70
2021/03/15 13:28:38;;;;;;;2.95;2.40;;;5.60;90.60;;;;;;5095060;28;20475;-70
2021/03/15 13:31:04;;;;;;;2.75;2.13;;;5.50;90.50;;;;;;5094856;28;20046;-69
2021/03/15 13:33:30;;;;;;;2.60;2.40;;;5.50;90.30;;;;;;5095272;28;20059;-70
2021/03/15 13:35:55;;;;;;;4.18;2.70;;;5.50;91.00;;;;;;5094993;28;20073;-70
2021/03/15 13:38:21;;;;;;;3.10;2.17;;;5.60;90.90;;;;;;5076729;28;20024;-69
2021/03/15 13:40:47;;;;;;;6.50;2.58;;;5.60;90.50;;;;;;5095228;28;20027;-70
2021/03/15 13:43:13;;;;;;;3.05;2.20;;;5.70;90.40;;;;;;5095185;28;20036;-70
2021/03/15 13:45:39;;;;;;;3.03;2.20;;;5.70;90.50;;;;;;5094998;28;20027;-69
2021/03/15 13:48:08;;;;;;;2.65;2.00;;;5.70;90.00;;;;;;5095130;28;20024;-69
2021/03/15 13:50:36;;;;;;;2.70;2.13;;;5.60;88.00;;;;;;5094766;28;20077;-70
2021/03/15 13:53:02;;;;;;;3.40;2.30;;;5.60;89.80;;;;;;5095039;28;20503;-70
2021/03/15 13:55:28;;;;;;;2.15;1.85;;;5.60;90.00;;;;;;5094557;28;20016;-70
2021/03/15 13:57:54;;;;;;;2.28;2.08;;;5.70;89.60;;;;;;5094607;28;20028;-70
2021/03/15 14:00:20;;;;;;;2.60;1.90;;;5.70;89.30;;;;;;5094645;28;20020;-70
2021/03/15 14:02:46;;;;;;;2.28;2.08;;;5.70;88.00;;;;;;5092921;28;20610;-70
2021/03/15 14:05:13;;;;;;;2.25;1.80;;;5.70;88.40;;;;;;5094871;28;20030;-70
2021/03/15 14:07:39;;;;;;;5.20;2.20;;;5.80;88.40;;;;;;5094404;28;20384;-69
2021/03/15 14:10:06;;;;;;;3.92;2.63;;;5.80;87.60;;;;;;5094681;28;20111;-70
2021/03/15 14:12:32;;;;;;;2.38;1.95;;;5.80;87.80;;;;;;5094012;28;20502;-70
2021/03/15 14:14:58;;;;;;;7.50;2.15;;;5.80;88.40;;;;;;5094206;28;20055;-70
2021/03/15 14:17:25;;;;;;;5.35;2.40;;;5.80;88.90;;;;;;5094385;28;20020;-69
2021/03/15 14:19:51;;;;;;;4.45;2.75;;;5.80;89.40;;;;;;5094208;28;20064;-70
2021/03/15 14:22:17;;;;;;;4.75;2.50;;;5.80;90.00;;;;;;5094181;28;20119;-69
2021/03/15 14:24:43;;;;;;;4.00;1.80;;;5.80;90.40;;;;;;5094408;28;20128;-69
2021/03/15 14:27:09;;;;;;;3.47;1.80;;;5.80;90.30;;;;;;5093881;28;20055;-70
2021/03/15 14:29:35;;;;;;;2.75;1.85;;;5.80;89.20;;;;;;5093972;28;20368;-72
2021/03/15 14:32:00;;;;;;;2.13;1.45;;;5.80;90.80;;;;;;5094176;28;20107;-71
2021/03/15 14:34:26;;;;;;;5.75;1.90;;;7.60;99.90;;;;;;5093915;28;20024;-71
2021/03/15 14:36:52;;;;;;;6.75;2.45;;;8.30;93.00;;;;;;5093357;28;20027;-73
2021/03/15 14:39:18;;;;;;;7.68;2.50;;;8.00;89.70;;;;;;5093205;28;20387;-71
2021/03/15 14:41:44;;;;;;;6.25;1.70;;;7.60;88.20;;;;;;5093044;28;20040;-72
2021/03/15 14:44:10;;;;;;;6.25;1.98;;;7.30;88.60;;;;;;5094015;28;20035;-72
2021/03/15 14:46:35;;;;;;;5.57;1.73;;;7.00;88.40;;;;;;5093746;28;20024;-72
2021/03/15 14:49:02;;;;;;;5.20;2.03;;;6.90;89.00;;;;;;5093917;28;20024;-72
2021/03/15 14:51:27;;;;;;;3.92;2.10;;;6.70;89.40;;;;;;5093560;28;20463;-72
2021/03/15 14:53:53;;;;;;;2.33;1.77;;;6.60;88.60;;;;;;5093737;28;20046;-72
2021/03/15 14:56:21;;;;;;;2.25;1.80;;;6.50;88.50;;;;;;5093739;28;20028;-73
2021/03/15 14:58:46;;;;;;;2.60;1.67;;;6.50;88.30;;;;;;5093503;28;20062;-72
2021/03/15 15:01:12;;;;;;;2.33;1.63;;;6.40;88.40;;;;;;5093697;28;20067;-71
2021/03/15 15:03:38;;;;;;;4.25;1.92;;;6.40;88.40;;;;;;5093288;28;20124;-72
2021/03/15 15:06:04;;;;;;;3.20;1.70;;;6.30;87.30;;;;;;5093229;28;20031;-71
2021/03/15 15:08:31;;;;;;;2.97;1.60;;;6.20;86.20;;;;;;5093232;28;20024;-72
2021/03/15 15:10:57;;;;;;;6.00;1.40;;;6.10;84.20;;;;;;5092946;28;20077;-72
2021/03/15 15:13:22;;;;;;;1.85;1.48;;;6.00;85.60;;;;;;5092498;28;20027;-72
2021/03/15 15:15:48;;;;;;;2.50;1.50;;;6.00;85.40;;;;;;5092316;28;20046;-71
2021/03/15 15:18:14;;;;;;;2.45;1.50;;;5.90;86.40;;;;;;5092620;28;20415;-72
2021/03/15 15:20:40;;;;;;;3.55;1.80;;;5.90;85.80;;;;;;5092384;28;20024;-72
2021/03/15 15:23:06;;;;;;;2.95;1.70;;;5.90;87.10;;;;;;5092447;28;20012;-72
2021/03/15 15:25:32;;;;;;;3.83;1.60;;;5.90;88.30;;;;;;5092610;28;20069;-71
2021/03/15 15:28:01;;;;;;;2.05;1.50;;;5.90;88.40;;;;;;5092593;28;20028;-71
2021/03/15 15:30:28;;;;;;;2.40;1.20;;;5.90;88.60;;;;;;5092676;28;20020;-71
2021/03/15 15:32:54;;;;;;;2.03;1.60;;;5.90;88.80;;;;;;5092639;28;20028;-71
2021/03/15 15:35:21;;;;;;;2.90;1.45;;;5.90;90.00;;;;;;5092332;28;20020;-71
2021/03/15 15:37:48;;;;;;;2.03;1.35;;;5.90;89.50;;;;;;5092338;28;20018;-71
2021/03/15 15:40:15;;;;;;;2.40;1.60;;;5.80;89.00;;;;;;5092207;28;20028;-71
2021/03/15 15:42:41;;;;;;;2.05;1.50;;;5.80;89.50;;;;;;5092695;28;20459;-71
2021/03/15 15:45:08;;;;;;;2.72;1.40;;;5.80;90.10;;;;;;5092926;28;20424;-71
2021/03/15 15:47:34;;;;;;;1.98;1.65;;;5.70;90.50;;;;;;5092383;28;20055;-71
2021/03/15 15:50:00;;;;;;;1.98;1.60;;;5.70;91.40;;;;;;5092680;28;20052;-72
2021/03/15 15:52:25;;;;;;;2.25;1.60;;;5.70;91.60;;;;;;5074388;28;20369;-71
2021/03/15 15:54:52;;;;;;;5.43;1.67;;;5.70;91.90;;;;;;5074591;28;20047;-71
2021/03/15 15:57:18;;;;;;;2.17;1.58;;;5.70;92.00;;;;;;5092298;28;20024;-71
2021/03/15 15:59:43;;;;;;;5.53;1.98;;;5.60;92.10;;;;;;5092324;28;20032;-70
2021/03/15 16:02:09;;;;;;;4.97;1.90;;;5.60;92.60;;;;;;5092594;28;20039;-69
2021/03/15 16:04:35;;;;;;;8.38;2.25;;;5.60;92.40;;;;;;5092339;28;20020;-70
2021/03/15 16:07:01;;;;;;;7.70;2.08;;;5.60;92.60;;;;;;5092593;28;20030;-69
2021/03/15 16:09:26;;;;;;;2.95;1.77;;;5.60;92.30;;;;;;5092316;28;20024;-69
2021/03/15 16:11:52;;;;;;;8.82;1.80;;;5.50;92.10;;;;;;5074287;28;20020;-69
2021/03/15 16:14:18;;;;;;;5.03;1.83;;;5.50;92.50;;;;;;5092426;28;20067;-69
2021/03/15 16:16:44;;;;;;;2.45;1.88;;;5.50;92.20;;;;;;5091908;28;20048;-70
2021/03/15 16:19:09;;;;;;;2.75;2.03;;;5.40;92.30;;;;;;5091752;28;20024;-69
2021/03/15 16:21:35;;;;;;;2.70;1.88;;;5.40;92.50;;;;;;5091962;28;20036;-70
2021/03/15 16:24:01;;;;;;;3.13;1.80;;;5.40;92.50;;;;;;5092225;28;20095;-70
2021/03/15 16:26:27;;;;;;;2.63;1.70;;;5.30;92.80;;;;;;5073033;28;20024;-70
2021/03/15 16:28:52;;;;;;;2.53;1.67;;;5.30;92.90;;;;;;5092121;28;20020;-69
2021/03/15 16:31:19;;;;;;;1.95;1.75;;;5.20;92.70;;;;;;5092332;28;20028;-70
2021/03/15 16:33:46;;;;;;;2.35;1.60;;;5.20;93.00;;;;;;5091917;28;20027;-69
2021/03/15 16:36:12;;;;;;;3.42;1.70;;;5.10;93.30;;;;;;5092005;28;20031;-70
2021/03/15 16:38:38;;;;;;;2.42;1.73;;;5.10;93.60;;;;;;5091846;28;20016;-69
2021/03/15 16:41:04;;;;;;;2.10;1.67;;;5.10;93.60;;;;;;5091956;28;20055;-69
2021/03/15 16:43:29;;;;;;;2.75;1.60;;;5.10;94.20;;;;;;5091767;28;20028;-69
2021/03/15 16:45:56;;;;;;;3.00;1.73;;;5.10;93.80;;;;;;5091980;28;20624;-69
2021/03/15 16:48:23;;;;;;;2.53;1.88;;;5.10;94.00;;;;;;5091854;28;20032;-70
2021/03/15 16:50:49;;;;;;;2.80;1.65;;;5.00;94.10;;;;;;5073739;28;20029;-70
2021/03/15 16:53:15;;;;;;;2.03;1.80;;;5.00;94.50;;;;;;5092112;28;20034;-70
2021/03/15 16:55:40;;;;;;;1.75;1.65;;;5.00;94.70;;;;;;5091025;28;20024;-70
2021/03/15 16:58:06;;;;;;;2.63;1.80;;;4.90;94.60;;;;;;5091854;28;20032;-72
2021/03/15 17:00:32;;;;;;;2.47;1.60;;;4.90;94.80;;;;;;5091669;28;20024;-73
2021/03/15 17:02:58;;;;;;;2.97;1.75;;;4.90;94.90;;;;;;5091756;28;20376;-73
2021/03/15 17:05:23;;;;;;;2.50;2.03;;;4.80;94.90;;;;;;5091865;28;20059;-74
2021/03/15 17:07:49;;;;;;;1.95;1.75;;;4.80;95.20;;;;;;5073422;28;20041;-72
2021/03/15 17:10:15;;;;;;;4.72;2.22;;;4.70;95.40;;;;;;5092072;28;20020;-70
2021/03/15 17:12:41;;;;;;;4.00;1.90;;;4.70;95.70;;;;;;5091722;28;20391;-73
2021/03/15 17:15:07;;;;;;;2.30;2.03;;;4.90;99.90;;;;;;5091576;28;20403;-73